logo
Search for airport 
image banner adimage banner adimage banner ad
image banner ad

KCDA - Caledonia County

Located in Lyndonville, United States

ICAO - CDA, IATA - LLX

Data provided by Airmate  

General information

Coordinates: N44°34'9" W72°1'5"
Elevation is 1187 feet MSL.
Magnetic variation is -16° East
View others Airports in Vermont

Operational data

Special qualification required
Current time UTC:
Current local time:
Weather
METAR: KCDA 131615Z AUTO 16008KT 140V200 10SM SCT036 BKN041 OVC049 10/01 A2938 RMK AO2 T00950007
View NOTAMs / SUP AIP / TFR affecting this airport [VIEW]
Communications frequencies: [VIEW]

Runways:

RWY identifierQFULength (ft)Width (ft)SurfaceLDA (ft)
02330260ASPH
20188°330260ASPH

Airport contact information

Address: Lyndonville United States

Satellite view of KCDA